首页
METAR-TAF:

METAR-TAF

机场 :

黃刀鎮, 西北特區, 加拿大

纬度: 62-28N, 经度: 114-27W, 海拔: 205米

当前天气观测

该预报发布于10分钟前的09:00 UTC
风速3节,风向
温度 -2°C
湿度 100%
气压 998 hPa
能見度: 24.1公里
少量云层高于300英尺

METAR: CYZF 170900Z 36003KT 15SM R34/5000VP6000FT/D FEW003 M02/M02 A2948 RMK ST2 SLP999

时间: 03:10 (09:10 UTC)

预报

该预报发布于52分钟前的08:18 UTC
预报有效从17日的 08点(UTC)到 18日的 06点(UTC)
风速3节,风向多变
能見度: 1.6公里
多云层高于300英尺
阴天层高于800英尺
(小) 冻, 毛毛雨, 轻雾
短暂存在
从 17日的 08点(UTC)到 17日的 18点(UTC)
能見度: 4.8公里
散云层高于300英尺
阴天层高于800英尺
小雪, 轻雾
从 17日的 1800点(UTC)
风速8节,风向东转东北
能見度: 10公里
散云层高于500英尺
阴天层高于1500英尺
短暂存在
从 17日的 18点(UTC)到 17日的 21点(UTC)
能見度: 3.2公里
阴天层高于500英尺
轻雾
从 17日的 2100点(UTC)
风速10节,风向东北
能見度: 10公里
少量云层高于500英尺
阴天层高于1500英尺
从 18日的 0300点(UTC)
风速10节,风向东转东北,有时为20节阵风
能見度: 3.2公里
阴天层高于500英尺
小雪, 轻雾

TAF: CYZF 170818Z 1708/1806 VRB03KT 1SM -FZDZ BR BKN003 OVC008 TEMPO 1708/1718 3SM -SN BR SCT003 OVC008 FM171800 06008KT P6SM SCT005 OVC015 TEMPO 1718/1721 2SM BR OVC005 FM172100 05010KT P6SM FEW005 OVC015 FM180300 07010G20KT 2SM -SN BR OVC005 RMK NXT FCST BY 171200Z

超过4000个机场的气象观测和天气预报(METAR&TAF报告)。

可查询的气象台以黄色和红色小点在地图上表示。

将鼠标移到小点上方,可查看气象台名称。

然后点击查看天气观测和预报。

如需切换地图:点击带黑十字的绿色按钮放大地图;点击带横线的绿色按钮缩小地图;或者点击绿色箭头查看邻近地区的地图。


METAR-TAF: